createdAt,value
2022-09-21T00:01:33.123Z,94.24
2022-09-21T00:04:02.949Z,94.89
2022-09-21T00:06:33.775Z,94.33
2022-09-21T00:09:05.247Z,94.23
2022-09-21T00:11:35.119Z,92.08
2022-09-21T00:14:07.187Z,92.46
2022-09-21T00:16:35.916Z,93.47
2022-09-21T00:19:04.829Z,94.08
2022-09-21T00:21:34.722Z,91.97
2022-09-21T00:24:04.445Z,89.97
2022-09-21T00:26:33.498Z,91.78
2022-09-21T00:29:03.382Z,92.48
2022-09-21T00:31:32.645Z,91.44
2022-09-21T00:34:03.493Z,91.66
2022-09-21T00:36:31.444Z,92.45
2022-09-21T00:39:01.003Z,92.10
2022-09-21T00:41:32.424Z,92.16
2022-09-21T00:44:26.711Z,92.58
2022-09-21T00:46:58.545Z,93.96
2022-09-21T00:49:28.844Z,93.15
2022-09-21T00:51:58.847Z,93.65
2022-09-21T00:54:29.221Z,94.04
2022-09-21T00:57:03.323Z,93.32
2022-09-21T00:59:35.957Z,94.15
2022-09-21T01:02:04.759Z,90.71
2022-09-21T01:04:33.654Z,91.60
2022-09-21T01:07:06.358Z,92.58
2022-09-21T01:09:35.443Z,93.41
2022-09-21T01:12:16.579Z,92.39
2022-09-21T01:14:58.891Z,92.23
2022-09-21T01:17:37.768Z,91.56
2022-09-21T01:20:25.443Z,91.30
2022-09-21T01:23:09.445Z,92.29
2022-09-21T01:28:57.835Z,92.28
2022-09-21T01:31:30.743Z,92.27
2022-09-21T01:34:06.918Z,92.74
2022-09-21T01:36:35.970Z,93.64
2022-09-21T01:39:09.045Z,93.41
2022-09-21T01:41:41.332Z,93.23
2022-09-21T01:44:14.735Z,93.57
2022-09-21T01:46:42.808Z,93.72
2022-09-21T01:49:14.290Z,94.11
2022-09-21T01:51:46.787Z,94.43
2022-09-21T01:54:20.289Z,92.90
2022-09-21T01:56:52.057Z,91.80
2022-09-21T01:59:27.629Z,92.05
2022-09-21T02:01:59.815Z,92.63
2022-09-21T02:04:28.609Z,93.91
2022-09-21T02:06:57.240Z,91.62
2022-09-21T02:09:25.595Z,91.81
2022-09-21T02:11:53.848Z,92.31
2022-09-21T02:14:25.340Z,92.35
2022-09-21T02:17:03.483Z,92.52
2022-09-21T02:19:41.998Z,92.84
2022-09-21T02:22:14.646Z,93.35
2022-09-21T02:24:45.215Z,92.90
2022-09-21T02:27:21.378Z,93.37
2022-09-21T02:29:55.190Z,93.83
2022-09-21T02:32:30.394Z,93.47
2022-09-21T02:35:04.789Z,92.97
2022-09-21T02:37:39.912Z,93.40
2022-09-21T02:40:14.963Z,93.28
2022-09-21T02:42:46.546Z,93.03
2022-09-21T02:45:22.494Z,92.26
2022-09-21T02:47:56.765Z,93.00
2022-09-21T02:50:32.970Z,93.99
2022-09-21T02:53:03.034Z,93.65
2022-09-21T02:55:32.662Z,94.37
2022-09-21T02:58:05.762Z,93.09
2022-09-21T03:00:35.515Z,93.31
2022-09-21T03:03:17.125Z,93.73
2022-09-21T03:05:46.238Z,93.87
2022-09-21T03:08:14.230Z,93.50
2022-09-21T03:10:41.986Z,93.06
2022-09-21T03:13:10.153Z,91.64
2022-09-21T03:15:40.223Z,92.27
2022-09-21T03:18:11.627Z,91.73
2022-09-21T03:20:41.017Z,92.54
2022-09-21T03:23:09.625Z,92.56
2022-09-21T03:25:38.117Z,92.24
2022-09-21T03:28:06.519Z,92.39
2022-09-21T03:30:35.569Z,93.40
2022-09-21T03:33:06.505Z,92.42
2022-09-21T03:35:34.975Z,92.78
2022-09-21T03:38:03.446Z,92.94
2022-09-21T03:40:31.575Z,93.40
2022-09-21T03:42:59.741Z,93.13
2022-09-21T03:45:28.340Z,94.38
2022-09-21T03:47:58.285Z,92.28
2022-09-21T03:50:29.178Z,92.32
2022-09-21T03:52:57.644Z,93.69
2022-09-21T03:55:26.117Z,93.16
2022-09-21T03:57:54.040Z,93.04
2022-09-21T04:00:22.542Z,92.65
2022-09-21T04:02:50.534Z,92.99
2022-09-21T04:05:19.540Z,92.78
2022-09-21T04:07:49.410Z,93.09
2022-09-21T04:10:19.589Z,92.68
2022-09-21T04:12:48.561Z,93.31
2022-09-21T04:15:19.585Z,95.43
2022-09-21T04:17:48.701Z,92.89
2022-09-21T04:20:16.741Z,92.36
2022-09-21T04:22:44.871Z,92.15
2022-09-21T04:25:15.160Z,92.38
2022-09-21T04:27:43.325Z,94.51
2022-09-21T04:30:14.172Z,93.79
2022-09-21T04:32:42.197Z,93.54
2022-09-21T04:35:11.063Z,91.35
2022-09-21T04:37:39.166Z,91.48
2022-09-21T04:40:09.763Z,91.94
2022-09-21T04:42:39.445Z,93.09
2022-09-21T04:45:08.993Z,93.14
2022-09-21T04:47:37.674Z,93.34
2022-09-21T04:50:06.476Z,92.36
2022-09-21T04:52:34.748Z,92.81
2022-09-21T04:55:02.632Z,93.20
2022-09-21T04:57:30.906Z,93.61
2022-09-21T05:00:00.195Z,94.39
2022-09-21T05:02:28.064Z,93.79
2022-09-21T05:04:56.947Z,94.43
2022-09-21T05:07:25.073Z,93.80
2022-09-21T05:10:04.166Z,94.49
2022-09-21T05:12:32.604Z,92.88
2022-09-21T05:15:02.463Z,93.83
2022-09-21T05:17:30.512Z,94.30
2022-09-21T05:19:58.887Z,94.09
2022-09-21T05:22:26.769Z,94.99
2022-09-21T05:24:56.131Z,95.26
2022-09-21T05:27:24.023Z,94.43
2022-09-21T05:29:53.279Z,93.21
2022-09-21T05:32:33.686Z,93.34
2022-09-21T05:35:13.237Z,94.73
2022-09-21T05:41:28.366Z,94.54
2022-09-21T05:43:57.272Z,94.68
2022-09-21T05:46:44.529Z,93.65
2022-09-21T05:49:20.599Z,95.01
2022-09-21T05:51:59.448Z,95.28
2022-09-21T05:54:40.685Z,94.66
2022-09-21T05:57:17.513Z,94.85
2022-09-21T05:59:56.972Z,95.19
2022-09-21T06:02:40.181Z,94.18
2022-09-21T06:05:12.922Z,92.48
2022-09-21T06:07:41.645Z,93.83
2022-09-21T06:10:10.872Z,92.87
2022-09-21T06:12:38.586Z,91.99
2022-09-21T06:15:12.538Z,92.54
2022-09-21T06:17:40.561Z,93.55
2022-09-21T06:20:11.458Z,94.40
2022-09-21T06:22:39.426Z,94.44
2022-09-21T06:25:08.712Z,94.05
2022-09-21T06:27:39.552Z,92.99
2022-09-21T06:30:08.850Z,93.33
2022-09-21T06:32:39.500Z,93.30
2022-09-21T06:35:11.231Z,93.36
2022-09-21T06:37:40.174Z,91.98
2022-09-21T06:40:09.863Z,92.06
2022-09-21T06:42:37.606Z,91.06
2022-09-21T06:45:06.537Z,90.63
2022-09-21T06:47:34.234Z,90.55
2022-09-21T06:50:02.038Z,90.66
2022-09-21T06:52:33.757Z,91.61
2022-09-21T06:55:01.869Z,90.56
2022-09-21T06:57:29.566Z,90.91
2022-09-21T06:59:57.610Z,89.47
2022-09-21T07:02:25.443Z,90.21
2022-09-21T07:04:53.547Z,90.25
2022-09-21T07:07:23.606Z,90.53
2022-09-21T07:10:15.801Z,90.19
2022-09-21T07:12:43.988Z,89.48
2022-09-21T07:15:13.796Z,89.37
2022-09-21T07:17:43.044Z,89.86
2022-09-21T07:20:11.059Z,88.59
2022-09-21T07:22:38.924Z,91.21
2022-09-21T07:25:08.642Z,86.48
2022-09-21T07:27:36.305Z,86.59
2022-09-21T07:30:05.134Z,87.68
2022-09-21T07:32:32.866Z,87.75
2022-09-21T07:35:01.199Z,86.43
2022-09-21T07:37:29.482Z,88.07
2022-09-21T07:39:57.968Z,85.02
2022-09-21T07:42:30.218Z,85.85
2022-09-21T07:45:04.863Z,84.65
2022-09-21T07:47:33.104Z,87.67
2022-09-21T07:50:01.397Z,88.12
2022-09-21T07:52:29.356Z,85.55
2022-09-21T07:55:00.272Z,84.44
2022-09-21T07:57:47.536Z,83.17
2022-09-21T08:00:15.927Z,85.41
2022-09-21T08:02:47.490Z,85.67
2022-09-21T08:05:15.996Z,80.44
2022-09-21T08:07:43.733Z,79.64
2022-09-21T08:10:11.793Z,77.55
2022-09-21T08:12:40.848Z,78.21
2022-09-21T08:15:25.045Z,78.79
2022-09-21T08:17:58.673Z,83.59
2022-09-21T08:20:26.438Z,79.40
2022-09-21T08:22:56.801Z,78.19
2022-09-21T08:25:24.825Z,79.40
2022-09-21T08:27:58.821Z,77.28
2022-09-21T08:30:27.985Z,77.15
2022-09-21T08:32:56.219Z,81.12
2022-09-21T08:35:23.961Z,79.19
2022-09-21T08:37:54.816Z,79.72
2022-09-21T08:40:23.040Z,79.74
2022-09-21T08:43:00.061Z,76.86
2022-09-21T08:45:35.114Z,76.15
2022-09-21T08:48:06.809Z,67.36
2022-09-21T08:50:39.135Z,76.23
2022-09-21T08:53:11.746Z,73.92
2022-09-21T08:55:39.545Z,73.44
2022-09-21T08:58:22.345Z,71.11
2022-09-21T09:01:02.497Z,66.67
2022-09-21T09:03:56.018Z,66.94
2022-09-21T09:06:31.717Z,69.96
2022-09-21T09:09:20.196Z,64.27
2022-09-21T09:12:11.057Z,60.52
2022-09-21T09:14:57.295Z,54.81
2022-09-21T09:17:40.027Z,53.46
2022-09-21T09:20:12.845Z,54.81
2022-09-21T09:22:46.919Z,56.17
2022-09-21T09:25:22.250Z,56.58
2022-09-21T09:27:53.944Z,59.20
2022-09-21T09:30:26.092Z,50.13
2022-09-21T09:33:00.028Z,49.26
2022-09-21T09:35:31.176Z,50.48
2022-09-21T09:38:05.957Z,52.44
2022-09-21T09:41:03.532Z,51.60
2022-09-21T09:43:46.880Z,54.82
2022-09-21T09:46:22.944Z,49.34
2022-09-21T09:49:13.950Z,50.02
2022-09-21T09:51:44.382Z,45.97
2022-09-21T09:54:16.267Z,49.38
2022-09-21T09:56:44.203Z,47.44
2022-09-21T09:59:20.864Z,51.34
2022-09-21T10:02:02.525Z,49.48
2022-09-21T10:04:30.807Z,51.91
2022-09-21T10:06:58.437Z,55.36
2022-09-21T10:09:28.793Z,50.04
2022-09-21T10:12:01.063Z,48.45
2022-09-21T10:14:34.530Z,49.38
2022-09-21T10:17:08.257Z,46.32
2022-09-21T10:19:38.444Z,46.73
2022-09-21T10:22:06.793Z,49.65
2022-09-21T10:24:38.446Z,47.87
2022-09-21T10:27:10.340Z,48.12
2022-09-21T10:29:43.488Z,48.74
2022-09-21T10:32:24.351Z,49.03
2022-09-21T10:35:04.656Z,49.81
2022-09-21T10:37:34.811Z,48.70
2022-09-21T10:40:03.117Z,44.69
2022-09-21T10:42:36.280Z,44.64
2022-09-21T10:45:16.532Z,46.34
2022-09-21T10:47:48.591Z,45.36
2022-09-21T10:50:26.763Z,46.75
2022-09-21T10:53:00.613Z,49.15
2022-09-21T10:55:30.935Z,46.54
2022-09-21T10:57:59.004Z,48.42
2022-09-21T11:00:41.632Z,51.24
2022-09-21T11:03:45.073Z,47.77
2022-09-21T11:06:25.744Z,46.02
2022-09-21T11:08:57.446Z,47.83
2022-09-21T11:11:43.705Z,45.07
2022-09-21T11:14:20.746Z,45.23
2022-09-21T11:16:56.835Z,46.84
2022-09-21T11:19:32.527Z,46.12
2022-09-21T11:22:09.394Z,45.39
2022-09-21T11:24:46.394Z,43.92
2022-09-21T11:27:18.875Z,43.98
2022-09-21T11:29:56.416Z,44.99
2022-09-21T11:32:37.068Z,44.45
2022-09-21T11:35:24.562Z,43.78
2022-09-21T11:38:05.228Z,44.51
2022-09-21T11:40:47.475Z,47.46
2022-09-21T11:43:27.966Z,47.21
2022-09-21T11:46:02.762Z,47.79
2022-09-21T11:48:45.373Z,47.05
2022-09-21T11:51:28.605Z,47.65
2022-09-21T11:54:31.960Z,46.02
2022-09-21T11:57:08.231Z,47.19
2022-09-21T11:59:51.117Z,45.46
2022-09-21T12:02:52.011Z,44.39
2022-09-21T12:05:25.622Z,44.32
2022-09-21T12:08:20.527Z,40.31
2022-09-21T12:11:03.468Z,40.44
2022-09-21T12:13:42.147Z,38.92
2022-09-21T12:16:18.021Z,41.41
2022-09-21T12:18:54.736Z,43.21
2022-09-21T12:21:25.240Z,44.52
2022-09-21T12:23:56.630Z,44.67
2022-09-21T12:26:29.018Z,46.12
2022-09-21T12:29:01.781Z,47.29
2022-09-21T12:31:36.667Z,47.51
2022-09-21T12:34:11.165Z,49.28
2022-09-21T12:36:44.376Z,50.46
2022-09-21T12:39:19.716Z,49.00
2022-09-21T12:41:55.055Z,47.65
2022-09-21T12:44:29.872Z,48.04
2022-09-21T12:47:09.380Z,46.68
2022-09-21T12:49:42.976Z,47.33
2022-09-21T12:52:22.747Z,43.79
2022-09-21T12:54:58.730Z,44.93
2022-09-21T12:57:58.849Z,45.68
2022-09-21T13:00:39.872Z,46.00
2022-09-21T13:03:15.439Z,46.25
2022-09-21T13:05:54.815Z,45.97
2022-09-21T13:08:28.747Z,45.44
2022-09-21T13:11:05.054Z,45.83
2022-09-21T13:13:36.263Z,47.19
2022-09-21T13:16:05.624Z,48.24
2022-09-21T13:18:36.664Z,46.72
2022-09-21T13:21:17.823Z,46.87
2022-09-21T13:23:53.700Z,45.31
2022-09-21T13:26:36.219Z,43.20
2022-09-21T13:29:30.769Z,42.00
2022-09-21T13:32:00.853Z,39.15
2022-09-21T13:34:34.493Z,38.72
2022-09-21T13:37:36.048Z,40.05
2022-09-21T13:40:40.518Z,39.60
2022-09-21T13:43:20.594Z,40.71
2022-09-21T13:45:56.012Z,38.63
2022-09-21T13:48:29.553Z,38.10
2022-09-21T13:51:00.037Z,39.66
2022-09-21T13:53:34.183Z,39.35
2022-09-21T13:56:08.687Z,42.45
2022-09-21T13:58:42.005Z,45.60
2022-09-21T14:01:42.385Z,46.55
2022-09-21T14:04:20.105Z,46.56
2022-09-21T14:06:52.674Z,47.22
2022-09-21T14:09:25.045Z,47.42
2022-09-21T14:12:00.204Z,47.80
2022-09-21T14:14:32.744Z,48.47
2022-09-21T14:17:02.794Z,47.97
2022-09-21T14:20:04.636Z,48.08
2022-09-21T14:26:33.992Z,48.59
2022-09-21T14:29:09.636Z,48.89
2022-09-21T14:31:39.919Z,49.24
2022-09-21T14:34:15.393Z,48.54
2022-09-21T14:36:47.355Z,49.51
2022-09-21T14:39:18.503Z,50.07
2022-09-21T14:41:51.349Z,49.47
2022-09-21T14:44:21.901Z,49.63
2022-09-21T14:47:25.368Z,48.17
2022-09-21T14:50:15.454Z,47.74
2022-09-21T14:53:01.033Z,49.09
2022-09-21T14:55:41.841Z,49.94
2022-09-21T14:58:27.492Z,49.16
2022-09-21T15:00:55.845Z,49.98
2022-09-21T15:03:40.025Z,50.01
2022-09-21T15:06:38.067Z,50.09
2022-09-21T15:09:44.360Z,50.85
2022-09-21T15:12:19.182Z,50.99
2022-09-21T15:14:52.511Z,51.54
2022-09-21T15:17:26.300Z,50.92
2022-09-21T15:19:59.114Z,51.55
2022-09-21T15:22:29.383Z,51.44
2022-09-21T15:24:59.184Z,51.64
2022-09-21T15:27:33.385Z,50.58
2022-09-21T15:30:05.237Z,49.93
2022-09-21T15:32:37.920Z,48.00
2022-09-21T15:35:08.469Z,48.18
2022-09-21T15:37:39.588Z,48.08
2022-09-21T15:40:17.385Z,49.90
2022-09-21T15:43:00.990Z,50.47
2022-09-21T15:45:31.842Z,54.12
2022-09-21T15:47:59.493Z,49.84
2022-09-21T15:50:30.430Z,48.86
2022-09-21T15:53:05.005Z,49.26
2022-09-21T15:55:33.936Z,47.60
2022-09-21T15:58:04.295Z,48.50
2022-09-21T16:00:35.806Z,50.31
2022-09-21T16:03:06.829Z,49.42
2022-09-21T16:05:45.373Z,51.08
2022-09-21T16:08:27.323Z,51.08
2022-09-21T16:11:13.140Z,51.68
2022-09-21T16:13:58.733Z,52.85
2022-09-21T16:16:27.159Z,52.86
2022-09-21T16:18:56.362Z,53.84
2022-09-21T16:21:26.629Z,53.82
2022-09-21T16:23:58.172Z,54.12
2022-09-21T16:26:28.649Z,54.93
2022-09-21T16:29:18.710Z,55.29
2022-09-21T16:31:50.285Z,56.14
2022-09-21T16:34:22.764Z,56.98
2022-09-21T16:36:52.884Z,57.25
2022-09-21T16:39:22.698Z,57.42
2022-09-21T16:41:53.997Z,58.31
2022-09-21T16:44:25.505Z,58.50
2022-09-21T16:46:56.069Z,59.61
2022-09-21T16:49:30.034Z,59.26
2022-09-21T16:51:59.237Z,59.68
2022-09-21T16:54:28.965Z,60.12
2022-09-21T16:56:58.759Z,60.94
2022-09-21T16:59:27.543Z,61.82
2022-09-21T17:01:57.123Z,62.19
2022-09-21T17:04:27.276Z,62.71
2022-09-21T17:06:56.307Z,62.74
2022-09-21T17:09:29.413Z,63.18
2022-09-21T17:12:01.161Z,63.67
2022-09-21T17:14:34.956Z,64.39
2022-09-21T17:17:06.054Z,64.87
2022-09-21T17:19:34.743Z,65.11
2022-09-21T17:22:04.236Z,66.11
2022-09-21T17:24:49.144Z,67.04
2022-09-21T17:27:21.864Z,66.66
2022-09-21T17:29:50.653Z,68.63
2022-09-21T17:32:21.426Z,69.32
2022-09-21T17:34:53.204Z,71.02
2022-09-21T17:37:22.125Z,72.19
2022-09-21T17:39:50.051Z,73.19
2022-09-21T17:42:22.081Z,73.14
2022-09-21T17:44:59.637Z,74.58
2022-09-21T17:47:29.602Z,76.06
2022-09-21T17:50:02.919Z,76.45
2022-09-21T17:52:48.809Z,77.29
2022-09-21T17:55:17.231Z,77.57
2022-09-21T17:57:59.376Z,77.36
2022-09-21T18:00:50.507Z,78.24
2022-09-21T18:03:22.366Z,78.95
2022-09-21T18:05:51.845Z,78.70
2022-09-21T18:08:20.067Z,79.63
2022-09-21T18:10:58.818Z,80.27
2022-09-21T18:13:38.825Z,80.90
2022-09-21T18:16:21.932Z,81.00
2022-09-21T18:18:59.340Z,81.83
2022-09-21T18:21:28.062Z,81.99
2022-09-21T18:24:19.352Z,81.29
2022-09-21T18:26:48.290Z,82.28
2022-09-21T18:29:40.305Z,83.37
2022-09-21T18:32:32.549Z,83.02
2022-09-21T18:35:28.861Z,83.90
2022-09-21T18:38:18.211Z,84.04
2022-09-21T18:40:59.522Z,84.65
2022-09-21T18:43:34.920Z,85.07
2022-09-21T18:46:06.863Z,85.24
2022-09-21T18:48:52.773Z,84.89
2022-09-21T18:51:28.911Z,85.08
2022-09-21T18:53:57.989Z,84.41
2022-09-21T18:56:28.084Z,85.65
2022-09-21T18:58:57.179Z,85.86
2022-09-21T19:01:29.962Z,86.45
2022-09-21T19:03:58.298Z,86.37
2022-09-21T19:06:40.514Z,85.09
2022-09-21T19:09:18.636Z,86.38
2022-09-21T19:11:54.052Z,85.91
2022-09-21T19:14:28.275Z,86.26
2022-09-21T19:17:10.655Z,86.60
2022-09-21T19:19:49.644Z,87.12
2022-09-21T19:22:27.640Z,87.18
2022-09-21T19:25:04.048Z,86.82
2022-09-21T19:27:40.479Z,87.67
2022-09-21T19:30:11.965Z,87.87
2022-09-21T19:32:45.867Z,86.22
2022-09-21T19:35:18.939Z,87.42
2022-09-21T19:37:47.733Z,86.61
2022-09-21T19:40:16.685Z,86.88
2022-09-21T19:43:04.252Z,86.99
2022-09-21T19:45:42.578Z,88.21
2022-09-21T19:48:14.881Z,87.31
2022-09-21T19:50:48.288Z,87.08
2022-09-21T19:53:34.517Z,87.42
2022-09-21T19:56:20.783Z,88.91
2022-09-21T19:59:17.477Z,88.18
2022-09-21T20:01:52.782Z,88.30
2022-09-21T20:04:28.404Z,89.54
2022-09-21T20:07:03.509Z,89.12
2022-09-21T20:09:38.033Z,89.02
2022-09-21T20:12:16.069Z,88.61
2022-09-21T20:14:48.800Z,89.67
2022-09-21T20:17:22.132Z,89.12
2022-09-21T20:19:57.948Z,89.75
2022-09-21T20:22:34.675Z,89.63
2022-09-21T20:25:10.589Z,88.86
2022-09-21T20:27:41.512Z,89.03
2022-09-21T20:30:12.838Z,90.63
2022-09-21T20:32:44.508Z,89.78
2022-09-21T20:35:17.427Z,89.63
2022-09-21T20:37:45.742Z,89.21
2022-09-21T20:40:14.657Z,89.65
2022-09-21T20:42:43.682Z,89.80
2022-09-21T20:45:13.330Z,89.52
2022-09-21T20:47:41.300Z,90.62
2022-09-21T20:50:12.704Z,90.56
2022-09-21T20:52:43.050Z,90.10
2022-09-21T20:55:13.847Z,90.00
2022-09-21T20:57:42.185Z,90.04
2022-09-21T21:00:12.562Z,89.64
2022-09-21T21:02:40.809Z,90.30
2022-09-21T21:05:10.357Z,89.67
2022-09-21T21:07:38.549Z,89.30
2022-09-21T21:10:08.131Z,89.05
2022-09-21T21:12:36.134Z,89.78
2022-09-21T21:15:03.846Z,89.55
2022-09-21T21:17:31.805Z,89.64
2022-09-21T21:19:59.469Z,89.78
2022-09-21T21:22:27.400Z,90.02
2022-09-21T21:24:55.029Z,90.57
2022-09-21T21:27:25.717Z,91.95
2022-09-21T21:29:55.311Z,91.46
2022-09-21T21:32:25.517Z,90.10
2022-09-21T21:34:54.395Z,89.27
2022-09-21T21:37:24.793Z,90.42
2022-09-21T21:39:53.127Z,90.42
2022-09-21T21:42:22.016Z,90.64
2022-09-21T21:44:51.400Z,91.27
2022-09-21T21:50:07.778Z,90.71
2022-09-21T21:52:35.755Z,91.24
2022-09-21T21:55:03.493Z,91.03
2022-09-21T21:57:31.149Z,90.49
2022-09-21T22:00:00.177Z,91.05
2022-09-21T22:02:28.638Z,90.69
2022-09-21T22:04:56.306Z,90.91
2022-09-21T22:07:24.357Z,89.68
2022-09-21T22:09:52.013Z,91.07
2022-09-21T22:12:20.319Z,90.38
2022-09-21T22:14:47.902Z,89.62
2022-09-21T22:17:17.229Z,90.50
2022-09-21T22:19:45.527Z,91.00
2022-09-21T22:22:13.525Z,92.01
2022-09-21T22:24:41.160Z,91.33
2022-09-21T22:27:08.943Z,90.77
2022-09-21T22:29:36.594Z,90.83
2022-09-21T22:32:04.680Z,91.36
2022-09-21T22:34:33.761Z,90.42
2022-09-21T22:37:01.741Z,89.88
2022-09-21T22:39:29.392Z,90.65
2022-09-21T22:41:57.124Z,88.98
2022-09-21T22:44:24.759Z,90.58
2022-09-21T22:46:52.725Z,89.81
2022-09-21T22:49:20.369Z,90.22
2022-09-21T22:51:49.671Z,91.31
2022-09-21T22:54:17.363Z,91.36
2022-09-21T22:56:45.346Z,91.83
2022-09-21T22:59:12.972Z,91.57
2022-09-21T23:01:41.865Z,90.49
2022-09-21T23:04:11.388Z,91.05
2022-09-21T23:06:42.168Z,91.15
2022-09-21T23:09:14.721Z,90.62
2022-09-21T23:11:47.445Z,91.35
2022-09-21T23:14:16.689Z,90.74
2022-09-21T23:16:45.017Z,91.31
2022-09-21T23:19:16.250Z,91.34
2022-09-21T23:21:46.350Z,90.90
2022-09-21T23:24:15.309Z,91.58
2022-09-21T23:26:43.671Z,91.31
2022-09-21T23:29:12.946Z,90.91
2022-09-21T23:31:45.005Z,90.95
2022-09-21T23:34:13.482Z,91.36
2022-09-21T23:36:42.603Z,90.86
2022-09-21T23:39:11.688Z,91.61
2022-09-21T23:41:41.516Z,90.69
2022-09-21T23:44:09.588Z,91.67
2022-09-21T23:46:39.766Z,91.98
2022-09-21T23:49:07.922Z,90.64
2022-09-21T23:51:36.679Z,91.30
2022-09-21T23:54:05.059Z,90.77
2022-09-21T23:56:33.706Z,90.79
2022-09-21T23:59:03.134Z,90.96
